createdAt,value
2019-05-05T00:00:20.901Z,0.00
2019-05-05T00:01:20.892Z,0.00
2019-05-05T00:02:20.880Z,0.00
2019-05-05T00:03:20.909Z,0.00
2019-05-05T00:04:20.850Z,0.00
2019-05-05T00:05:20.865Z,0.00
2019-05-05T00:06:20.840Z,0.00
2019-05-05T00:07:20.820Z,0.00
2019-05-05T00:08:20.833Z,0.00
2019-05-05T00:09:20.800Z,0.00
2019-05-05T00:10:20.800Z,0.00
2019-05-05T00:11:20.790Z,0.00
2019-05-05T00:12:20.772Z,0.00
2019-05-05T00:13:20.850Z,0.00
2019-05-05T00:14:20.759Z,0.00
2019-05-05T00:15:20.742Z,0.00
2019-05-05T00:16:20.739Z,0.00
2019-05-05T00:17:20.725Z,0.00
2019-05-05T00:18:20.709Z,0.00
2019-05-05T00:19:30.744Z,0.00
2019-05-05T00:20:21.679Z,0.00
2019-05-05T00:21:20.670Z,0.00
2019-05-05T00:22:20.679Z,0.00
2019-05-05T00:23:20.663Z,0.00
2019-05-05T00:24:20.648Z,0.00
2019-05-05T00:25:20.638Z,0.00
2019-05-05T00:26:20.628Z,0.00
2019-05-05T00:27:20.618Z,0.00
2019-05-05T00:28:20.598Z,0.00
2019-05-05T00:29:20.691Z,0.00
2019-05-05T00:30:20.588Z,0.00
2019-05-05T00:31:20.606Z,0.00
2019-05-05T00:32:20.553Z,0.00
2019-05-05T00:33:20.547Z,0.00
2019-05-05T00:34:20.547Z,0.00
2019-05-05T00:35:20.561Z,0.00
2019-05-05T00:36:20.526Z,0.00
2019-05-05T00:37:20.508Z,0.00
2019-05-05T00:38:20.487Z,0.00
2019-05-05T00:39:20.487Z,0.00
2019-05-05T00:40:20.485Z,0.00
2019-05-05T00:41:20.479Z,0.00
2019-05-05T00:42:20.447Z,0.00
2019-05-05T00:43:20.437Z,0.00
2019-05-05T00:44:20.436Z,0.00
2019-05-05T00:45:20.417Z,0.00
2019-05-05T00:46:20.517Z,0.00
2019-05-05T00:47:20.410Z,0.00
2019-05-05T00:48:20.386Z,0.00
2019-05-05T00:49:20.366Z,0.00
2019-05-05T00:50:20.377Z,0.00
2019-05-05T00:51:20.378Z,0.00
2019-05-05T00:52:20.396Z,0.00
2019-05-05T00:53:20.336Z,0.00
2019-05-05T00:54:20.339Z,0.00
2019-05-05T00:55:20.296Z,0.00
2019-05-05T00:56:20.305Z,0.00
2019-05-05T00:57:20.386Z,0.00
2019-05-05T00:58:20.265Z,0.00
2019-05-05T00:59:20.256Z,0.00
2019-05-05T01:00:20.257Z,0.00
2019-05-05T01:01:20.246Z,0.00
2019-05-05T01:02:20.336Z,0.00
2019-05-05T01:03:20.235Z,0.00
2019-05-05T01:04:20.238Z,0.00
2019-05-05T01:05:20.216Z,0.00
2019-05-05T01:06:20.191Z,0.00
2019-05-05T01:07:20.204Z,0.00
2019-05-05T01:08:20.225Z,0.00
2019-05-05T01:09:20.156Z,0.00
2019-05-05T01:10:20.168Z,0.00
2019-05-05T01:11:20.144Z,0.00
2019-05-05T01:12:20.123Z,0.00
2019-05-05T01:13:20.167Z,0.00
2019-05-05T01:14:20.104Z,0.00
2019-05-05T01:15:20.104Z,0.00
2019-05-05T01:16:20.094Z,0.00
2019-05-05T01:17:20.085Z,0.00
2019-05-05T01:18:20.088Z,0.00
2019-05-05T01:19:20.064Z,0.00
2019-05-05T01:20:20.057Z,0.00
2019-05-05T01:21:20.033Z,0.00
2019-05-05T01:22:20.023Z,0.00
2019-05-05T01:23:20.083Z,0.00
2019-05-05T01:24:20.012Z,0.00
2019-05-05T01:25:20.003Z,0.00
2019-05-05T01:26:19.976Z,0.00
2019-05-05T01:27:19.978Z,0.00
2019-05-05T01:28:20.014Z,0.00
2019-05-05T01:29:19.966Z,0.00
2019-05-05T01:30:19.952Z,0.00
2019-05-05T01:31:19.932Z,0.00
2019-05-05T01:32:19.903Z,0.00
2019-05-05T01:33:19.916Z,0.00
2019-05-05T01:34:19.986Z,0.00
2019-05-05T01:35:19.990Z,0.00
2019-05-05T01:36:19.874Z,0.00
2019-05-05T01:37:19.874Z,0.00
2019-05-05T01:38:24.811Z,0.00
2019-05-05T01:39:19.951Z,0.00
2019-05-05T01:40:19.834Z,0.00
2019-05-05T01:41:19.835Z,0.00
2019-05-05T01:42:19.804Z,0.00
2019-05-05T01:43:19.793Z,0.00
2019-05-05T01:44:19.791Z,0.00
2019-05-05T01:45:19.862Z,0.00
2019-05-05T01:46:19.751Z,0.00
2019-05-05T01:47:19.762Z,0.00
2019-05-05T01:48:19.744Z,0.00
2019-05-05T01:49:19.812Z,0.00
2019-05-05T01:50:21.442Z,0.00
2019-05-05T01:51:19.734Z,0.00
2019-05-05T01:52:19.708Z,0.00
2019-05-05T01:53:19.691Z,0.00
2019-05-05T01:54:19.671Z,0.00
2019-05-05T01:55:19.750Z,0.00
2019-05-05T01:56:19.659Z,0.00
2019-05-05T01:57:19.649Z,0.00
2019-05-05T01:58:19.621Z,0.00
2019-05-05T01:59:19.634Z,0.00
2019-05-05T02:00:19.710Z,0.00
2019-05-05T02:01:19.613Z,0.00
2019-05-05T02:02:19.591Z,0.00
2019-05-05T02:03:19.580Z,0.00
2019-05-05T02:04:19.580Z,0.00
2019-05-05T02:05:19.559Z,0.00
2019-05-05T02:06:19.560Z,0.00
2019-05-05T02:07:19.541Z,0.00
2019-05-05T02:08:19.529Z,0.00
2019-05-05T02:09:19.530Z,0.00
2019-05-05T02:10:19.621Z,0.00
2019-05-05T02:11:19.514Z,0.00
2019-05-05T02:12:19.479Z,0.00
2019-05-05T02:13:19.460Z,0.00
2019-05-05T02:14:19.471Z,0.00
2019-05-05T02:15:19.462Z,0.00
2019-05-05T02:16:19.532Z,0.00
2019-05-05T02:17:19.440Z,0.00
2019-05-05T02:18:19.408Z,0.00
2019-05-05T02:19:19.399Z,0.00
2019-05-05T02:20:28.752Z,0.00
2019-05-05T02:21:20.399Z,0.00
2019-05-05T02:22:19.378Z,0.00
2019-05-05T02:23:19.377Z,0.00
2019-05-05T02:24:19.348Z,0.00
2019-05-05T02:25:19.428Z,0.00
2019-05-05T02:26:19.445Z,0.00
2019-05-05T02:27:19.775Z,0.00
2019-05-05T02:28:19.318Z,0.00
2019-05-05T02:29:19.318Z,0.00
2019-05-05T02:30:19.289Z,0.00
2019-05-05T02:31:19.377Z,0.00
2019-05-05T02:32:19.282Z,0.00
2019-05-05T02:33:19.358Z,0.00
2019-05-05T02:34:19.252Z,0.00
2019-05-05T02:35:19.238Z,0.00
2019-05-05T02:36:19.278Z,0.00
2019-05-05T02:37:19.217Z,0.00
2019-05-05T02:38:19.209Z,0.00
2019-05-05T02:39:19.278Z,0.00
2019-05-05T02:40:19.199Z,0.00
2019-05-05T02:41:19.203Z,0.00
2019-05-05T02:42:19.238Z,0.00
2019-05-05T02:43:19.156Z,0.00
2019-05-05T02:44:19.147Z,0.00
2019-05-05T02:45:19.137Z,0.00
2019-05-05T02:46:19.122Z,0.00
2019-05-05T02:47:19.209Z,0.00
2019-05-05T02:48:19.106Z,0.00
2019-05-05T02:49:19.100Z,0.00
2019-05-05T02:50:19.160Z,0.00
2019-05-05T02:51:19.071Z,0.00
2019-05-05T02:52:19.060Z,0.00
2019-05-05T02:53:19.136Z,0.00
2019-05-05T02:54:19.045Z,0.00
2019-05-05T02:55:19.026Z,0.00
2019-05-05T02:56:19.015Z,0.00
2019-05-05T02:57:19.014Z,0.00
2019-05-05T02:58:18.986Z,0.00
2019-05-05T02:59:19.055Z,0.00
2019-05-05T03:00:18.975Z,0.00
2019-05-05T03:01:18.964Z,0.00
2019-05-05T03:02:18.944Z,0.00
2019-05-05T03:03:18.935Z,0.00
2019-05-05T03:04:18.915Z,0.00
2019-05-05T03:05:18.916Z,0.00
2019-05-05T03:06:18.994Z,0.00
2019-05-05T03:07:18.894Z,0.00
2019-05-05T03:08:18.883Z,0.00
2019-05-05T03:09:18.887Z,0.00
2019-05-05T03:10:18.854Z,0.00
2019-05-05T03:11:18.854Z,0.00
2019-05-05T03:12:18.854Z,0.00
2019-05-05T03:13:18.837Z,0.00
2019-05-05T03:14:18.834Z,0.00
2019-05-05T03:15:18.813Z,0.00
2019-05-05T03:16:18.812Z,0.00
2019-05-05T03:17:18.792Z,0.00
2019-05-05T03:18:18.832Z,0.00
2019-05-05T03:19:18.773Z,0.00
2019-05-05T03:20:18.753Z,0.00
2019-05-05T03:21:18.754Z,0.00
2019-05-05T03:22:18.722Z,0.00
2019-05-05T03:23:18.745Z,0.00
2019-05-05T03:24:18.802Z,0.00
2019-05-05T03:25:18.692Z,0.00
2019-05-05T03:26:18.692Z,0.00
2019-05-05T03:27:18.681Z,0.00
2019-05-05T03:28:18.681Z,0.00
2019-05-05T03:29:18.665Z,0.00
2019-05-05T03:30:18.743Z,0.00
2019-05-05T03:31:18.653Z,0.00
2019-05-05T03:32:18.633Z,0.00
2019-05-05T03:33:18.623Z,0.00
2019-05-05T03:34:18.611Z,0.00
2019-05-05T03:35:18.612Z,0.00
2019-05-05T03:36:18.572Z,0.00
2019-05-05T03:37:18.581Z,0.00
2019-05-05T03:38:18.561Z,0.00
2019-05-05T03:39:18.574Z,0.00
2019-05-05T03:40:18.540Z,5.62
2019-05-05T03:41:18.621Z,5.62
2019-05-05T03:42:18.512Z,5.62
2019-05-05T03:43:18.523Z,5.62
2019-05-05T03:44:18.490Z,5.62
2019-05-05T03:45:18.531Z,5.62
2019-05-05T03:46:18.490Z,5.62
2019-05-05T03:47:18.460Z,5.62
2019-05-05T03:48:18.456Z,11.25
2019-05-05T03:49:18.454Z,11.25
2019-05-05T03:50:18.441Z,11.25
2019-05-05T03:51:21.122Z,11.25
2019-05-05T03:52:18.400Z,11.25
2019-05-05T03:53:18.409Z,16.88
2019-05-05T03:54:18.379Z,16.88
2019-05-05T03:55:18.392Z,16.88
2019-05-05T03:56:18.439Z,16.88
2019-05-05T03:57:21.340Z,22.50
2019-05-05T03:58:18.366Z,22.50
2019-05-05T03:59:18.347Z,22.50
2019-05-05T04:00:18.331Z,22.50
2019-05-05T04:01:18.409Z,28.12
2019-05-05T04:02:18.298Z,28.12
2019-05-05T04:03:18.299Z,28.12
2019-05-05T04:04:18.279Z,33.75
2019-05-05T04:05:18.279Z,33.75
2019-05-05T04:06:18.362Z,33.75
2019-05-05T04:07:18.257Z,39.38
2019-05-05T04:08:18.243Z,39.38
2019-05-05T04:09:18.229Z,39.38
2019-05-05T04:10:18.218Z,45.00
2019-05-05T04:11:18.218Z,45.00
2019-05-05T04:12:18.289Z,45.00
2019-05-05T04:13:18.207Z,50.62
2019-05-05T04:14:18.628Z,50.62
2019-05-05T04:15:18.157Z,50.62
2019-05-05T04:16:18.248Z,56.25
2019-05-05T04:17:18.136Z,56.25
2019-05-05T04:18:18.127Z,56.25
2019-05-05T04:19:18.127Z,61.88
2019-05-05T04:20:18.117Z,61.88
2019-05-05T04:21:30.125Z,67.50
2019-05-05T04:22:19.175Z,67.50
2019-05-05T04:23:18.096Z,67.50
2019-05-05T04:24:18.069Z,73.12
2019-05-05T04:25:18.056Z,73.12
2019-05-05T04:26:18.070Z,73.12
2019-05-05T04:27:18.037Z,78.75
2019-05-05T04:28:18.026Z,78.75
2019-05-05T04:29:18.015Z,84.38
2019-05-05T04:30:18.016Z,84.38
2019-05-05T04:31:18.005Z,84.38
2019-05-05T04:32:18.078Z,90.00
2019-05-05T04:33:17.975Z,90.00
2019-05-05T04:34:17.956Z,90.00
2019-05-05T04:35:17.956Z,95.62
2019-05-05T04:36:17.945Z,95.62
2019-05-05T04:37:17.943Z,95.62
2019-05-05T04:38:18.005Z,101.25
2019-05-05T04:39:17.928Z,101.25
2019-05-05T04:40:17.919Z,106.88
2019-05-05T04:41:17.892Z,106.88
2019-05-05T04:42:17.966Z,106.88
2019-05-05T04:43:17.964Z,112.50
2019-05-05T04:44:18.088Z,112.50
2019-05-05T04:45:17.844Z,118.12
2019-05-05T04:46:17.834Z,118.12
2019-05-05T04:47:17.833Z,118.12
2019-05-05T04:48:17.884Z,123.75
2019-05-05T04:49:17.817Z,123.75
2019-05-05T04:50:18.366Z,129.38
2019-05-05T04:51:17.785Z,129.38
2019-05-05T04:52:17.779Z,129.38
2019-05-05T04:53:17.833Z,135.00
2019-05-05T04:54:17.756Z,135.00
2019-05-05T04:55:17.737Z,140.62
2019-05-05T04:56:17.814Z,140.62
2019-05-05T04:57:17.736Z,146.25
2019-05-05T04:58:17.804Z,146.25
2019-05-05T04:59:17.783Z,146.25
2019-05-05T05:00:17.683Z,146.25
2019-05-05T05:01:17.663Z,151.88
2019-05-05T05:02:17.673Z,151.88
2019-05-05T05:03:17.651Z,151.88
2019-05-05T05:04:17.736Z,157.50
2019-05-05T05:05:17.653Z,157.50
2019-05-05T05:06:17.643Z,163.12
2019-05-05T05:07:17.601Z,163.12
2019-05-05T05:08:17.611Z,163.12
2019-05-05T05:09:17.591Z,168.75
2019-05-05T05:10:17.579Z,168.75
2019-05-05T05:11:17.573Z,168.75
2019-05-05T05:12:17.563Z,174.38
2019-05-05T05:13:17.555Z,174.38
2019-05-05T05:14:17.542Z,174.38
2019-05-05T05:15:17.604Z,180.00
2019-05-05T05:16:17.525Z,180.00
2019-05-05T05:17:19.677Z,185.62
2019-05-05T05:18:17.501Z,185.62
2019-05-05T05:19:17.577Z,185.62
2019-05-05T05:20:17.483Z,185.62
2019-05-05T05:21:17.463Z,191.25
2019-05-05T05:22:17.451Z,191.25
2019-05-05T05:23:17.451Z,196.88
2019-05-05T05:24:17.434Z,202.50
2019-05-05T05:25:17.492Z,202.50
2019-05-05T05:26:17.411Z,202.50
2019-05-05T05:27:17.396Z,202.50
2019-05-05T05:28:17.405Z,208.12
2019-05-05T05:29:17.371Z,208.12
2019-05-05T05:30:17.373Z,208.12
2019-05-05T05:31:17.440Z,213.75
2019-05-05T05:32:17.340Z,213.75
2019-05-05T05:33:17.330Z,219.38
2019-05-05T05:34:17.311Z,225.00
2019-05-05T05:35:17.402Z,236.25
2019-05-05T05:36:17.309Z,236.25
2019-05-05T05:37:17.303Z,236.25
2019-05-05T05:38:17.281Z,241.88
2019-05-05T05:39:17.281Z,247.50
2019-05-05T05:40:17.353Z,241.88
2019-05-05T05:41:17.260Z,247.50
2019-05-05T05:42:17.229Z,247.50
2019-05-05T05:43:17.259Z,247.50
2019-05-05T05:44:17.218Z,253.12
2019-05-05T05:45:17.298Z,253.12
2019-05-05T05:46:17.189Z,258.75
2019-05-05T05:47:17.179Z,264.38
2019-05-05T05:48:17.160Z,264.38
2019-05-05T05:49:17.159Z,264.38
2019-05-05T05:50:17.162Z,270.00
2019-05-05T05:51:19.387Z,281.25
2019-05-05T05:52:19.181Z,298.12
2019-05-05T05:53:17.119Z,315.00
2019-05-05T05:54:17.099Z,320.62
2019-05-05T05:55:17.189Z,337.50
2019-05-05T05:56:17.093Z,309.38
2019-05-05T05:57:17.086Z,309.38
2019-05-05T05:58:17.086Z,315.00
2019-05-05T05:59:17.060Z,393.75
2019-05-05T06:00:17.121Z,427.50
2019-05-05T06:01:17.042Z,433.12
2019-05-05T06:02:17.010Z,489.38
2019-05-05T06:03:17.009Z,500.62
2019-05-05T06:04:16.999Z,517.50
2019-05-05T06:05:16.968Z,495.00
2019-05-05T06:06:17.058Z,466.88
2019-05-05T06:07:16.968Z,680.62
2019-05-05T06:08:16.956Z,776.25
2019-05-05T06:09:16.952Z,720.00
2019-05-05T06:10:24.328Z,669.38
2019-05-05T06:11:18.016Z,703.12
2019-05-05T06:12:16.908Z,466.88
2019-05-05T06:13:16.899Z,506.25
2019-05-05T06:14:16.898Z,950.62
2019-05-05T06:15:16.887Z,1012.50
2019-05-05T06:16:16.881Z,1029.38
2019-05-05T06:17:16.947Z,978.75
2019-05-05T06:18:16.848Z,905.62
2019-05-05T06:19:16.838Z,871.88
2019-05-05T06:20:16.831Z,883.12
2019-05-05T06:21:16.817Z,765.00
2019-05-05T06:22:28.090Z,871.88
2019-05-05T06:23:17.888Z,1063.12
2019-05-05T06:24:16.788Z,1108.12
2019-05-05T06:25:16.790Z,1091.25
2019-05-05T06:26:16.758Z,1141.88
2019-05-05T06:27:16.837Z,967.50
2019-05-05T06:28:16.753Z,483.75
2019-05-05T06:29:16.728Z,607.50
2019-05-05T06:30:16.717Z,607.50
2019-05-05T06:31:16.707Z,545.62
2019-05-05T06:32:16.688Z,652.50
2019-05-05T06:33:16.788Z,669.38
2019-05-05T06:34:16.657Z,720.00
2019-05-05T06:35:16.649Z,731.25
2019-05-05T06:36:16.638Z,742.50
2019-05-05T06:37:16.658Z,781.88
2019-05-05T06:38:16.636Z,742.50
2019-05-05T06:39:16.637Z,776.25
2019-05-05T06:40:16.615Z,781.88
2019-05-05T06:41:16.610Z,770.62
2019-05-05T06:42:16.577Z,770.62
2019-05-05T06:43:16.577Z,765.00
2019-05-05T06:44:16.558Z,770.62
2019-05-05T06:45:16.637Z,776.25
2019-05-05T06:46:16.551Z,804.38
2019-05-05T06:47:16.528Z,843.75
2019-05-05T06:48:16.508Z,939.38
2019-05-05T06:49:16.507Z,1530.00
2019-05-05T06:50:16.487Z,855.00
2019-05-05T06:51:16.530Z,826.88
2019-05-05T06:52:16.470Z,888.75
2019-05-05T06:53:16.549Z,1063.12
2019-05-05T06:54:16.437Z,1113.75
2019-05-05T06:55:16.463Z,1260.00
2019-05-05T06:56:16.428Z,1096.88
2019-05-05T06:57:16.418Z,1535.62
2019-05-05T06:58:16.412Z,1282.50
2019-05-05T06:59:16.488Z,1507.50
2019-05-05T07:00:16.393Z,1293.75
2019-05-05T07:01:16.378Z,1321.88
2019-05-05T07:02:16.366Z,1119.38
2019-05-05T07:03:16.364Z,1051.88
2019-05-05T07:04:16.448Z,1231.88
2019-05-05T07:05:16.341Z,1175.62
2019-05-05T07:06:16.328Z,1209.38
2019-05-05T07:07:16.312Z,1203.75
2019-05-05T07:08:16.311Z,1046.25
2019-05-05T07:09:16.288Z,1074.38
2019-05-05T07:10:16.359Z,1108.12
2019-05-05T07:11:16.289Z,1029.38
2019-05-05T07:12:16.258Z,1001.25
2019-05-05T07:13:16.230Z,1035.00
2019-05-05T07:14:16.219Z,995.62
2019-05-05T07:15:16.299Z,1074.38
2019-05-05T07:16:16.210Z,1327.50
2019-05-05T07:17:16.221Z,1299.38
2019-05-05T07:18:16.198Z,1046.25
2019-05-05T07:19:16.179Z,888.75
2019-05-05T07:20:16.249Z,838.12
2019-05-05T07:21:16.270Z,810.00
2019-05-05T07:22:17.801Z,804.38
2019-05-05T07:23:16.140Z,787.50
2019-05-05T07:24:16.131Z,787.50
2019-05-05T07:25:16.124Z,770.62
2019-05-05T07:26:16.100Z,742.50
2019-05-05T07:27:16.214Z,703.12
2019-05-05T07:28:16.070Z,691.88
2019-05-05T07:29:18.078Z,697.50
2019-05-05T07:30:16.068Z,697.50
2019-05-05T07:31:16.040Z,725.62
2019-05-05T07:32:16.149Z,742.50
2019-05-05T07:33:16.040Z,759.38
2019-05-05T07:34:16.000Z,787.50
2019-05-05T07:35:16.027Z,826.88
2019-05-05T07:36:15.990Z,860.62
2019-05-05T07:37:15.980Z,877.50
2019-05-05T07:38:15.983Z,894.38
2019-05-05T07:39:15.980Z,894.38
2019-05-05T07:40:16.044Z,905.62
2019-05-05T07:41:16.020Z,922.50
2019-05-05T07:42:15.933Z,961.88
2019-05-05T07:43:15.920Z,1023.75
2019-05-05T07:44:25.701Z,1068.75
2019-05-05T07:45:22.574Z,1102.50
2019-05-05T07:46:16.961Z,1130.62
2019-05-05T07:47:15.870Z,1125.00
2019-05-05T07:48:15.850Z,1108.12
2019-05-05T07:49:15.861Z,1063.12
2019-05-05T07:50:28.531Z,1018.12
2019-05-05T07:51:16.901Z,984.38
2019-05-05T07:52:15.830Z,950.62
2019-05-05T07:53:17.912Z,916.88
2019-05-05T07:54:15.811Z,894.38
2019-05-05T07:55:15.795Z,843.75
2019-05-05T07:56:15.781Z,804.38
2019-05-05T07:57:15.842Z,776.25
2019-05-05T07:58:15.751Z,765.00
2019-05-05T07:59:15.741Z,759.38
2019-05-05T08:00:15.741Z,781.88
2019-05-05T08:01:15.721Z,815.62
2019-05-05T08:02:15.794Z,821.25
2019-05-05T08:03:15.774Z,832.50
2019-05-05T08:04:15.692Z,832.50
2019-05-05T08:05:15.681Z,832.50
2019-05-05T08:06:15.662Z,815.62
2019-05-05T08:07:15.679Z,810.00
2019-05-05T08:08:15.722Z,810.00
2019-05-05T08:09:15.633Z,815.62
2019-05-05T08:10:15.613Z,821.25
2019-05-05T08:11:15.602Z,804.38
2019-05-05T08:12:15.694Z,804.38
2019-05-05T08:13:15.678Z,815.62
2019-05-05T08:14:15.683Z,826.88
2019-05-05T08:15:15.552Z,860.62
2019-05-05T08:16:15.552Z,888.75
2019-05-05T08:17:15.546Z,900.00
2019-05-05T08:18:15.532Z,905.62
2019-05-05T08:19:15.527Z,911.25
2019-05-05T08:20:15.583Z,905.62
2019-05-05T08:21:15.507Z,905.62
2019-05-05T08:22:15.495Z,916.88
2019-05-05T08:23:29.065Z,939.38
2019-05-05T08:24:16.556Z,995.62
2019-05-05T08:25:15.453Z,1001.25
2019-05-05T08:26:15.466Z,1018.12
2019-05-05T08:27:15.458Z,1063.12
2019-05-05T08:28:15.524Z,1136.25
2019-05-05T08:29:15.426Z,1170.00
2019-05-05T08:30:15.404Z,1186.88
2019-05-05T08:31:15.474Z,1192.50
2019-05-05T08:32:15.398Z,1158.75
2019-05-05T08:33:15.373Z,1164.38
2019-05-05T08:34:15.369Z,1203.75
2019-05-05T08:35:15.367Z,1254.38
2019-05-05T08:36:15.448Z,1215.00
2019-05-05T08:37:15.314Z,1186.88
2019-05-05T08:38:15.327Z,1085.62
2019-05-05T08:39:15.313Z,1074.38
2019-05-05T08:40:15.294Z,1175.62
2019-05-05T08:41:15.284Z,1299.38
2019-05-05T08:42:15.364Z,1366.88
2019-05-05T08:43:15.264Z,1282.50
2019-05-05T08:44:17.882Z,1321.88
2019-05-05T08:45:15.324Z,1479.38
2019-05-05T08:46:15.234Z,1535.62
2019-05-05T08:47:15.238Z,1417.50
2019-05-05T08:48:15.204Z,1333.12
2019-05-05T08:49:15.207Z,1445.62
2019-05-05T08:50:15.275Z,1518.75
2019-05-05T08:51:15.168Z,1428.75
2019-05-05T08:52:15.155Z,1350.00
2019-05-05T08:53:15.158Z,1333.12
2019-05-05T08:54:15.135Z,1271.25
2019-05-05T08:55:15.215Z,1226.25
2019-05-05T08:56:15.138Z,1231.88
2019-05-05T08:57:15.130Z,1198.12
2019-05-05T08:58:15.095Z,1113.75
2019-05-05T08:59:15.085Z,905.62
2019-05-05T09:00:15.089Z,826.88
2019-05-05T09:01:15.139Z,821.25
2019-05-05T09:02:15.165Z,922.50
2019-05-05T09:03:15.047Z,984.38
2019-05-05T09:04:15.026Z,894.38
2019-05-05T09:05:15.099Z,826.88
2019-05-05T09:06:15.016Z,714.38
2019-05-05T09:07:15.006Z,624.38
2019-05-05T09:08:14.999Z,551.25
2019-05-05T09:09:14.990Z,607.50
2019-05-05T09:10:15.048Z,703.12
2019-05-05T09:11:14.960Z,810.00
2019-05-05T09:12:14.937Z,950.62
2019-05-05T09:13:14.927Z,1248.75
2019-05-05T09:14:15.103Z,1642.50
2019-05-05T09:15:14.998Z,1878.75
2019-05-05T09:16:14.908Z,1546.88
2019-05-05T09:17:14.888Z,1237.50
2019-05-05T09:18:14.878Z,1113.75
2019-05-05T09:19:14.881Z,1170.00
2019-05-05T09:20:14.864Z,1282.50
2019-05-05T09:21:14.939Z,1378.12
2019-05-05T09:22:14.842Z,900.00
2019-05-05T09:23:14.994Z,748.12
2019-05-05T09:24:14.818Z,675.00
2019-05-05T09:25:14.779Z,641.25
2019-05-05T09:26:14.879Z,686.25
2019-05-05T09:27:14.784Z,770.62
2019-05-05T09:28:14.896Z,849.38
2019-05-05T09:29:14.749Z,894.38
2019-05-05T09:30:14.750Z,900.00
2019-05-05T09:31:14.814Z,916.88
2019-05-05T09:32:14.723Z,939.38
2019-05-05T09:33:18.069Z,1063.12
2019-05-05T09:34:14.762Z,2098.12
2019-05-05T09:35:14.702Z,1760.62
2019-05-05T09:36:14.678Z,3982.50
2019-05-05T09:37:14.750Z,3195.00
2019-05-05T09:38:14.886Z,2205.00
2019-05-05T09:39:14.664Z,4078.12
2019-05-05T09:40:14.640Z,4230.00
2019-05-05T09:41:14.634Z,4494.38
2019-05-05T09:42:14.768Z,4117.50
2019-05-05T09:43:14.956Z,2520.00
2019-05-05T09:44:14.600Z,4190.62
2019-05-05T09:45:14.582Z,2469.38
2019-05-05T09:46:14.582Z,2497.50
2019-05-05T09:47:14.702Z,2964.38
2019-05-05T09:48:14.552Z,1996.88
2019-05-05T09:49:14.542Z,1698.75
2019-05-05T09:50:14.535Z,1237.50
2019-05-05T09:51:14.522Z,990.00
2019-05-05T09:52:14.514Z,967.50
2019-05-05T09:53:14.732Z,945.00
2019-05-05T09:54:17.212Z,877.50
2019-05-05T09:55:14.473Z,770.62
2019-05-05T09:56:14.664Z,669.38
2019-05-05T09:57:14.685Z,590.62
2019-05-05T09:58:14.505Z,500.62
2019-05-05T09:59:14.415Z,416.25
2019-05-05T10:00:14.436Z,371.25
2019-05-05T10:01:14.404Z,326.25
2019-05-05T10:02:14.404Z,286.88
2019-05-05T10:03:14.702Z,264.38
2019-05-05T10:04:14.381Z,253.12
2019-05-05T10:05:14.638Z,281.25
2019-05-05T10:06:14.408Z,371.25
2019-05-05T10:07:14.334Z,495.00
2019-05-05T10:08:14.462Z,579.38
2019-05-05T10:09:14.398Z,590.62
2019-05-05T10:10:14.297Z,545.62
2019-05-05T10:11:16.463Z,461.25
2019-05-05T10:12:14.286Z,371.25
2019-05-05T10:13:15.039Z,303.75
2019-05-05T10:14:14.487Z,264.38
2019-05-05T10:15:14.274Z,241.88
2019-05-05T10:16:14.407Z,213.75
2019-05-05T10:17:14.290Z,196.88
2019-05-05T10:18:14.354Z,191.25
2019-05-05T10:19:14.298Z,185.62
2019-05-05T10:20:14.611Z,191.25
2019-05-05T10:21:17.459Z,196.88
2019-05-05T10:22:14.769Z,202.50
2019-05-05T10:23:14.341Z,202.50
2019-05-05T10:24:27.126Z,202.50
2019-05-05T10:25:15.139Z,247.50
2019-05-05T10:26:14.963Z,343.12
2019-05-05T10:27:14.119Z,450.00
2019-05-05T10:28:14.108Z,573.75
2019-05-05T10:29:14.098Z,686.25
2019-05-05T10:30:14.348Z,787.50
2019-05-05T10:31:14.079Z,877.50
2019-05-05T10:32:14.070Z,961.88
2019-05-05T10:33:14.406Z,1029.38
2019-05-05T10:34:14.145Z,1102.50
2019-05-05T10:35:14.376Z,1136.25
2019-05-05T10:36:14.018Z,1125.00
2019-05-05T10:37:14.324Z,1181.25
2019-05-05T10:38:14.417Z,1310.62
2019-05-05T10:39:14.100Z,1501.88
2019-05-05T10:40:13.988Z,3498.75
2019-05-05T10:41:13.981Z,2716.88
2019-05-05T10:42:14.554Z,3650.62
2019-05-05T10:43:14.820Z,4168.12
2019-05-05T10:44:14.204Z,3881.25
2019-05-05T10:45:14.010Z,2632.50
2019-05-05T10:46:14.428Z,1338.75
2019-05-05T10:47:13.918Z,1355.62
2019-05-05T10:48:14.518Z,1569.38
2019-05-05T10:49:13.884Z,1839.38
2019-05-05T10:50:14.008Z,1575.00
2019-05-05T10:51:13.943Z,905.62
2019-05-05T10:52:14.365Z,697.50
2019-05-05T10:53:13.887Z,601.88
2019-05-05T10:54:14.274Z,545.62
2019-05-05T10:55:14.543Z,500.62
2019-05-05T10:56:13.863Z,495.00
2019-05-05T10:57:14.839Z,545.62
2019-05-05T10:58:13.924Z,618.75
2019-05-05T10:59:13.771Z,675.00
2019-05-05T11:00:15.624Z,708.75
2019-05-05T11:01:14.497Z,1366.88
2019-05-05T11:02:14.161Z,2880.00
2019-05-05T11:03:14.907Z,4128.75
2019-05-05T11:04:13.713Z,4050.00
2019-05-05T11:05:13.704Z,4111.88
2019-05-05T11:06:13.781Z,4803.75
2019-05-05T11:07:14.556Z,4758.75
2019-05-05T11:08:13.851Z,4398.75
2019-05-05T11:09:14.020Z,2587.50
2019-05-05T11:10:14.142Z,5062.50
2019-05-05T11:11:13.807Z,3363.75
2019-05-05T11:12:14.263Z,4471.88
2019-05-05T11:13:13.637Z,2610.00
2019-05-05T11:14:14.269Z,1693.12
2019-05-05T11:15:14.128Z,1468.12
2019-05-05T11:16:14.506Z,1366.88
2019-05-05T11:17:14.441Z,1057.50
2019-05-05T11:18:14.833Z,815.62
2019-05-05T11:19:13.808Z,618.75
2019-05-05T11:20:14.356Z,506.25
2019-05-05T11:21:14.453Z,444.38
2019-05-05T11:22:14.661Z,376.88
2019-05-05T11:23:14.955Z,315.00
2019-05-05T11:24:14.674Z,247.50
2019-05-05T11:25:13.942Z,196.88
2019-05-05T11:26:14.372Z,174.38
2019-05-05T11:27:13.468Z,185.62
2019-05-05T11:28:13.496Z,225.00
2019-05-05T11:29:13.646Z,253.12
2019-05-05T11:30:14.341Z,275.62
2019-05-05T11:31:13.786Z,315.00
2019-05-05T11:32:15.332Z,371.25
2019-05-05T11:33:14.264Z,472.50
2019-05-05T11:34:14.079Z,596.25
2019-05-05T11:35:13.980Z,691.88
2019-05-05T11:36:13.683Z,759.38
2019-05-05T11:37:13.520Z,810.00
2019-05-05T11:38:14.193Z,866.25
2019-05-05T11:39:14.781Z,933.75
2019-05-05T11:40:13.522Z,1001.25
2019-05-05T11:41:14.366Z,1063.12
2019-05-05T11:42:14.637Z,1119.38
2019-05-05T11:43:14.218Z,1164.38
2019-05-05T11:44:15.199Z,1220.62
2019-05-05T11:45:14.867Z,1445.62
2019-05-05T11:46:14.126Z,1940.62
2019-05-05T11:47:14.014Z,1603.12
2019-05-05T11:48:14.834Z,1400.62
2019-05-05T11:49:13.893Z,1383.75
2019-05-05T11:50:13.230Z,4432.50
2019-05-05T11:51:15.117Z,4151.25
2019-05-05T11:52:13.281Z,3825.00
2019-05-05T11:53:14.560Z,1755.00
2019-05-05T11:54:14.032Z,2514.38
2019-05-05T11:55:14.969Z,1530.00
2019-05-05T11:56:14.484Z,1518.75
2019-05-05T11:57:13.597Z,1434.38
2019-05-05T11:58:14.372Z,1276.88
2019-05-05T11:59:14.434Z,1119.38
2019-05-05T12:00:14.148Z,1023.75
2019-05-05T12:01:13.850Z,973.12
2019-05-05T12:02:13.965Z,900.00
2019-05-05T12:03:14.355Z,849.38
2019-05-05T12:04:14.547Z,810.00
2019-05-05T12:05:14.092Z,810.00
2019-05-05T12:06:14.735Z,832.50
2019-05-05T12:07:14.640Z,877.50
2019-05-05T12:08:14.671Z,933.75
2019-05-05T12:09:13.961Z,984.38
2019-05-05T12:10:13.003Z,1012.50
2019-05-05T12:11:14.887Z,1057.50
2019-05-05T12:12:14.259Z,1102.50
2019-05-05T12:13:14.804Z,1265.62
2019-05-05T12:14:14.311Z,1265.62
2019-05-05T12:15:13.455Z,1372.50
2019-05-05T12:16:13.696Z,1575.00
2019-05-05T12:17:13.909Z,4713.75
2019-05-05T12:18:14.350Z,4438.12
2019-05-05T12:19:13.686Z,4533.75
2019-05-05T12:20:13.605Z,4663.12
2019-05-05T12:21:13.975Z,4657.50
2019-05-05T12:22:12.886Z,4657.50
2019-05-05T12:23:12.855Z,4657.50
2019-05-05T12:24:14.307Z,4477.50
2019-05-05T12:25:25.231Z,4314.38
2019-05-05T12:26:13.858Z,4381.88
2019-05-05T12:27:14.120Z,4539.38
2019-05-05T12:28:13.720Z,3723.75
2019-05-05T12:29:14.102Z,4359.38
2019-05-05T12:30:14.176Z,4618.12
2019-05-05T12:31:14.150Z,4775.62
2019-05-05T12:32:14.838Z,4522.50
2019-05-05T12:33:13.804Z,3785.62
2019-05-05T12:34:12.740Z,3751.88
2019-05-05T12:35:14.780Z,4303.12
2019-05-05T12:36:14.885Z,4640.62
2019-05-05T12:37:14.245Z,4494.38
2019-05-05T12:38:12.700Z,1192.50